sensor_id;sensor_type;location;lat;lon;timestamp;pressure;altitude;pressure_sealevel;temperature;humidity
32933;BME280;19444;50.518;10.870;2023-03-01T00:01:20;97569.22;;;-2.81;100.00
32933;BME280;19444;50.518;10.870;2023-03-01T00:04:17;97571.28;;;-2.57;100.00
32933;BME280;19444;50.518;10.870;2023-03-01T00:07:14;97568.69;;;-2.64;100.00
32933;BME280;19444;50.518;10.870;2023-03-01T00:10:11;97563.16;;;-2.75;100.00
32933;BME280;19444;50.518;10.870;2023-03-01T00:13:08;97573.91;;;-2.57;100.00
32933;BME280;19444;50.518;10.870;2023-03-01T00:16:08;97561.16;;;-2.80;100.00
32933;BME280;19444;50.518;10.870;2023-03-01T00:19:08;97559.75;;;-2.69;100.00
32933;BME280;19444;50.518;10.870;2023-03-01T00:22:06;97558.16;;;-2.70;100.00
32933;BME280;19444;50.518;10.870;2023-03-01T00:25:04;97553.09;;;-2.65;100.00
32933;BME280;19444;50.518;10.870;2023-03-01T00:28:00;97551.66;;;-2.74;100.00
32933;BME280;19444;50.518;10.870;2023-03-01T00:31:07;97558.78;;;-2.62;100.00
32933;BME280;19444;50.518;10.870;2023-03-01T00:34:05;97551.50;;;-2.73;100.00
32933;BME280;19444;50.518;10.870;2023-03-01T00:37:02;97554.69;;;-2.77;100.00
32933;BME280;19444;50.518;10.870;2023-03-01T00:40:02;97536.75;;;-2.74;100.00
32933;BME280;19444;50.518;10.870;2023-03-01T00:43:03;97550.44;;;-2.85;100.00
32933;BME280;19444;50.518;10.870;2023-03-01T00:46:05;97542.56;;;-2.92;100.00
32933;BME280;19444;50.518;10.870;2023-03-01T00:49:02;97541.09;;;-3.01;100.00
32933;BME280;19444;50.518;10.870;2023-03-01T00:52:01;97539.50;;;-2.95;100.00
32933;BME280;19444;50.518;10.870;2023-03-01T00:54:58;97536.47;;;-2.99;100.00
32933;BME280;19444;50.518;10.870;2023-03-01T00:57:54;97535.88;;;-3.01;100.00
32933;BME280;19444;50.518;10.870;2023-03-01T01:00:51;97545.53;;;-3.01;100.00
32933;BME280;19444;50.518;10.870;2023-03-01T01:03:54;97537.88;;;-2.96;100.00
32933;BME280;19444;50.518;10.870;2023-03-01T01:06:52;97535.88;;;-3.01;100.00
32933;BME280;19444;50.518;10.870;2023-03-01T01:09:49;97532.19;;;-3.06;100.00
32933;BME280;19444;50.518;10.870;2023-03-01T01:12:46;97533.25;;;-3.01;100.00
32933;BME280;19444;50.518;10.870;2023-03-01T01:15:42;97524.31;;;-3.06;100.00
32933;BME280;19444;50.518;10.870;2023-03-01T01:18:39;97513.84;;;-3.06;100.00
32933;BME280;19444;50.518;10.870;2023-03-01T01:21:37;97518.47;;;-3.08;100.00
32933;BME280;19444;50.518;10.870;2023-03-01T01:24:34;97509.09;;;-2.76;100.00
32933;BME280;19444;50.518;10.870;2023-03-01T01:27:31;97520.25;;;-3.16;100.00
32933;BME280;19444;50.518;10.870;2023-03-01T01:30:28;97512.16;;;-3.21;100.00
32933;BME280;19444;50.518;10.870;2023-03-01T01:33:25;97505.16;;;-3.07;100.00
32933;BME280;19444;50.518;10.870;2023-03-01T01:36:23;97508.84;;;-2.95;100.00
32933;BME280;19444;50.518;10.870;2023-03-01T01:39:23;97491.84;;;-3.05;100.00
32933;BME280;19444;50.518;10.870;2023-03-01T01:42:20;97490.06;;;-2.98;100.00
32933;BME280;19444;50.518;10.870;2023-03-01T01:45:34;97496.78;;;-2.82;100.00
32933;BME280;19444;50.518;10.870;2023-03-01T01:48:44;97478.63;;;-2.77;100.00
32933;BME280;19444;50.518;10.870;2023-03-01T01:51:45;97489.53;;;-2.67;100.00
32933;BME280;19444;50.518;10.870;2023-03-01T01:54:57;97500.38;;;-2.90;100.00
32933;BME280;19444;50.518;10.870;2023-03-01T01:58:02;97492.94;;;-2.80;100.00
32933;BME280;19444;50.518;10.870;2023-03-01T02:01:01;97476.59;;;-2.82;100.00
32933;BME280;19444;50.518;10.870;2023-03-01T02:03:59;97465.31;;;-2.76;100.00
32933;BME280;19444;50.518;10.870;2023-03-01T02:07:08;97467.69;;;-2.88;100.00
32933;BME280;19444;50.518;10.870;2023-03-01T02:10:07;97455.63;;;-2.75;100.00
32933;BME280;19444;50.518;10.870;2023-03-01T02:13:04;97448.38;;;-2.73;100.00
32933;BME280;19444;50.518;10.870;2023-03-01T02:16:09;97444.69;;;-2.86;100.00
32933;BME280;19444;50.518;10.870;2023-03-01T02:19:07;97439.69;;;-2.80;100.00
32933;BME280;19444;50.518;10.870;2023-03-01T02:25:54;97428.19;;;-2.79;100.00
32933;BME280;19444;50.518;10.870;2023-03-01T02:28:44;97435.44;;;-2.88;100.00
32933;BME280;19444;50.518;10.870;2023-03-01T02:31:41;97431.16;;;-2.96;100.00
32933;BME280;19444;50.518;10.870;2023-03-01T02:34:38;97419.06;;;-2.83;100.00
32933;BME280;19444;50.518;10.870;2023-03-01T02:37:36;97429.19;;;-2.67;100.00
32933;BME280;19444;50.518;10.870;2023-03-01T02:40:34;97425.56;;;-2.79;100.00
32933;BME280;19444;50.518;10.870;2023-03-01T02:43:35;97418.06;;;-2.96;100.00
32933;BME280;19444;50.518;10.870;2023-03-01T02:46:32;97423.47;;;-3.04;100.00
32933;BME280;19444;50.518;10.870;2023-03-01T02:49:35;97431.31;;;-3.17;100.00
32933;BME280;19444;50.518;10.870;2023-03-01T02:53:02;97426.34;;;-2.99;100.00
32933;BME280;19444;50.518;10.870;2023-03-01T02:56:02;97428.88;;;-3.25;100.00
32933;BME280;19444;50.518;10.870;2023-03-01T02:58:59;97434.53;;;-3.28;100.00
32933;BME280;19444;50.518;10.870;2023-03-01T03:01:57;97429.28;;;-3.28;100.00
32933;BME280;19444;50.518;10.870;2023-03-01T03:04:54;97428.31;;;-3.14;100.00
32933;BME280;19444;50.518;10.870;2023-03-01T03:07:51;97422.22;;;-3.28;100.00
32933;BME280;19444;50.518;10.870;2023-03-01T03:10:49;97410.97;;;-3.15;100.00
32933;BME280;19444;50.518;10.870;2023-03-01T03:13:46;97412.94;;;-3.24;100.00
32933;BME280;19444;50.518;10.870;2023-03-01T03:16:48;97413.38;;;-3.13;100.00
32933;BME280;19444;50.518;10.870;2023-03-01T03:19:46;97416.19;;;-3.28;100.00
32933;BME280;19444;50.518;10.870;2023-03-01T03:22:42;97416.97;;;-3.21;100.00
32933;BME280;19444;50.518;10.870;2023-03-01T03:25:39;97411.38;;;-3.18;100.00
32933;BME280;19444;50.518;10.870;2023-03-01T03:28:36;97404.47;;;-3.26;100.00
32933;BME280;19444;50.518;10.870;2023-03-01T03:31:36;97402.88;;;-3.20;100.00
32933;BME280;19444;50.518;10.870;2023-03-01T03:34:33;97399.63;;;-3.22;100.00
32933;BME280;19444;50.518;10.870;2023-03-01T03:37:30;97401.88;;;-3.19;100.00
32933;BME280;19444;50.518;10.870;2023-03-01T03:41:08;97405.50;;;-3.20;100.00
32933;BME280;19444;50.518;10.870;2023-03-01T03:44:05;97404.31;;;-3.18;100.00
32933;BME280;19444;50.518;10.870;2023-03-01T03:47:02;97397.84;;;-3.15;100.00
32933;BME280;19444;50.518;10.870;2023-03-01T03:49:58;97396.81;;;-3.27;100.00
32933;BME280;19444;50.518;10.870;2023-03-01T03:52:55;97391.41;;;-3.19;100.00
32933;BME280;19444;50.518;10.870;2023-03-01T03:55:53;97381.47;;;-3.37;100.00
32933;BME280;19444;50.518;10.870;2023-03-01T03:58:50;97382.47;;;-3.31;100.00
32933;BME280;19444;50.518;10.870;2023-03-01T04:01:47;97383.50;;;-3.26;100.00
32933;BME280;19444;50.518;10.870;2023-03-01T04:04:44;97389.34;;;-3.30;100.00
32933;BME280;19444;50.518;10.870;2023-03-01T04:07:42;97392.19;;;-3.25;100.00
32933;BME280;19444;50.518;10.870;2023-03-01T04:10:44;97392.59;;;-3.28;100.00
32933;BME280;19444;50.518;10.870;2023-03-01T04:13:42;97387.75;;;-3.25;100.00
32933;BME280;19444;50.518;10.870;2023-03-01T04:16:38;97385.75;;;-3.16;100.00
32933;BME280;19444;50.518;10.870;2023-03-01T04:19:35;97384.16;;;-3.17;100.00
32933;BME280;19444;50.518;10.870;2023-03-01T04:22:32;97387.16;;;-3.13;100.00
32933;BME280;19444;50.518;10.870;2023-03-01T04:25:30;97381.13;;;-3.07;100.00
32933;BME280;19444;50.518;10.870;2023-03-01T04:28:37;97372.63;;;-3.23;100.00
32933;BME280;19444;50.518;10.870;2023-03-01T04:31:35;97375.09;;;-2.95;100.00
32933;BME280;19444;50.518;10.870;2023-03-01T04:34:32;97380.53;;;-3.09;100.00
32933;BME280;19444;50.518;10.870;2023-03-01T04:37:29;97383.91;;;-3.22;100.00
32933;BME280;19444;50.518;10.870;2023-03-01T04:40:26;97373.59;;;-3.30;100.00
32933;BME280;19444;50.518;10.870;2023-03-01T04:43:23;97374.16;;;-3.55;100.00
32933;BME280;19444;50.518;10.870;2023-03-01T04:46:20;97384.47;;;-3.40;100.00
32933;BME280;19444;50.518;10.870;2023-03-01T04:49:17;97385.47;;;-3.41;100.00
32933;BME280;19444;50.518;10.870;2023-03-01T04:52:14;97387.88;;;-3.53;100.00
32933;BME280;19444;50.518;10.870;2023-03-01T04:55:11;97376.94;;;-3.63;100.00
32933;BME280;19444;50.518;10.870;2023-03-01T04:58:08;97377.34;;;-3.59;100.00
32933;BME280;19444;50.518;10.870;2023-03-01T05:01:11;97370.34;;;-3.52;100.00
32933;BME280;19444;50.518;10.870;2023-03-01T05:04:11;97364.66;;;-3.62;100.00
32933;BME280;19444;50.518;10.870;2023-03-01T05:07:10;97358.84;;;-3.51;100.00
32933;BME280;19444;50.518;10.870;2023-03-01T05:10:10;97358.00;;;-3.58;100.00
32933;BME280;19444;50.518;10.870;2023-03-01T05:13:08;97344.38;;;-3.47;100.00
32933;BME280;19444;50.518;10.870;2023-03-01T05:16:06;97354.84;;;-3.47;100.00
32933;BME280;19444;50.518;10.870;2023-03-01T05:19:08;97347.78;;;-3.47;100.00
32933;BME280;19444;50.518;10.870;2023-03-01T05:22:11;97355.78;;;-3.61;100.00
32933;BME280;19444;50.518;10.870;2023-03-01T05:25:08;97351.78;;;-3.51;100.00
32933;BME280;19444;50.518;10.870;2023-03-01T05:28:15;97338.88;;;-3.65;100.00
32933;BME280;19444;50.518;10.870;2023-03-01T05:31:12;97344.91;;;-3.58;100.00
32933;BME280;19444;50.518;10.870;2023-03-01T05:34:09;97338.44;;;-3.69;100.00
32933;BME280;19444;50.518;10.870;2023-03-01T05:37:09;97344.34;;;-3.54;100.00
32933;BME280;19444;50.518;10.870;2023-03-01T05:40:07;97339.69;;;-3.65;100.00
32933;BME280;19444;50.518;10.870;2023-03-01T05:43:14;97333.19;;;-3.69;100.00
32933;BME280;19444;50.518;10.870;2023-03-01T05:46:11;97338.28;;;-3.48;100.00
32933;BME280;19444;50.518;10.870;2023-03-01T05:49:10;97335.00;;;-3.69;100.00
32933;BME280;19444;50.518;10.870;2023-03-01T05:52:08;97342.50;;;-3.60;100.00
32933;BME280;19444;50.518;10.870;2023-03-01T05:55:06;97342.28;;;-3.65;100.00
32933;BME280;19444;50.518;10.870;2023-03-01T05:58:06;97336.25;;;-3.65;100.00
32933;BME280;19444;50.518;10.870;2023-03-01T06:01:03;97333.63;;;-3.59;100.00
32933;BME280;19444;50.518;10.870;2023-03-01T06:04:01;97331.22;;;-3.60;100.00
32933;BME280;19444;50.518;10.870;2023-03-01T06:06:58;97327.97;;;-3.69;100.00
32933;BME280;19444;50.518;10.870;2023-03-01T06:09:54;97328.16;;;-3.70;100.00
32933;BME280;19444;50.518;10.870;2023-03-01T06:12:51;97327.78;;;-3.61;100.00
32933;BME280;19444;50.518;10.870;2023-03-01T06:15:48;97328.38;;;-3.59;100.00
32933;BME280;19444;50.518;10.870;2023-03-01T06:18:45;97332.44;;;-3.56;100.00
32933;BME280;19444;50.518;10.870;2023-03-01T06:21:42;97345.38;;;-3.35;100.00
32933;BME280;19444;50.518;10.870;2023-03-01T06:24:39;97339.28;;;-3.49;100.00
32933;BME280;19444;50.518;10.870;2023-03-01T06:27:36;97345.75;;;-3.51;100.00
32933;BME280;19444;50.518;10.870;2023-03-01T06:30:33;97352.41;;;-3.42;100.00
32933;BME280;19444;50.518;10.870;2023-03-01T06:33:30;97349.00;;;-3.42;100.00
32933;BME280;19444;50.518;10.870;2023-03-01T06:36:26;97352.84;;;-3.32;100.00
32933;BME280;19444;50.518;10.870;2023-03-01T06:39:24;97370.38;;;-3.32;100.00
32933;BME280;19444;50.518;10.870;2023-03-01T06:42:21;97357.66;;;-3.42;100.00
32933;BME280;19444;50.518;10.870;2023-03-01T06:45:19;97347.59;;;-3.45;100.00
32933;BME280;19444;50.518;10.870;2023-03-01T06:48:16;97354.25;;;-3.42;100.00
32933;BME280;19444;50.518;10.870;2023-03-01T06:51:13;97358.50;;;-3.35;100.00
32933;BME280;19444;50.518;10.870;2023-03-01T06:54:10;97353.25;;;-3.35;100.00
32933;BME280;19444;50.518;10.870;2023-03-01T06:57:07;97355.03;;;-3.42;100.00
32933;BME280;19444;50.518;10.870;2023-03-01T07:00:05;97351.44;;;-3.34;100.00
32933;BME280;19444;50.518;10.870;2023-03-01T07:03:03;97343.59;;;-3.21;100.00
32933;BME280;19444;50.518;10.870;2023-03-01T07:06:00;97344.63;;;-3.16;100.00
32933;BME280;19444;50.518;10.870;2023-03-01T07:08:57;97341.78;;;-3.14;100.00
32933;BME280;19444;50.518;10.870;2023-03-01T07:11:54;97329.31;;;-2.99;100.00
32933;BME280;19444;50.518;10.870;2023-03-01T07:14:51;97346.25;;;-2.95;100.00
32933;BME280;19444;50.518;10.870;2023-03-01T07:17:48;97331.72;;;-2.77;100.00
32933;BME280;19444;50.518;10.870;2023-03-01T07:20:47;97320.44;;;-2.71;100.00
32933;BME280;19444;50.518;10.870;2023-03-01T07:23:46;97312.75;;;-2.66;100.00
32933;BME280;19444;50.518;10.870;2023-03-01T07:26:43;97313.97;;;-2.62;100.00
32933;BME280;19444;50.518;10.870;2023-03-01T07:29:40;97302.25;;;-2.53;100.00
32933;BME280;19444;50.518;10.870;2023-03-01T07:32:37;97314.94;;;-2.50;100.00
32933;BME280;19444;50.518;10.870;2023-03-01T07:35:34;97305.25;;;-2.36;100.00
32933;BME280;19444;50.518;10.870;2023-03-01T07:38:31;97306.84;;;-2.42;100.00
32933;BME280;19444;50.518;10.870;2023-03-01T07:41:29;97304.63;;;-2.32;100.00
32933;BME280;19444;50.518;10.870;2023-03-01T07:44:26;97310.66;;;-2.24;100.00
32933;BME280;19444;50.518;10.870;2023-03-01T07:47:23;97303.59;;;-2.31;100.00
32933;BME280;19444;50.518;10.870;2023-03-01T07:50:21;97305.84;;;-2.27;100.00
32933;BME280;19444;50.518;10.870;2023-03-01T07:53:17;97297.47;;;-2.11;100.00
32933;BME280;19444;50.518;10.870;2023-03-01T07:56:16;97296.69;;;-2.12;100.00
32933;BME280;19444;50.518;10.870;2023-03-01T07:59:14;97304.56;;;-2.12;100.00
32933;BME280;19444;50.518;10.870;2023-03-01T08:02:11;97296.66;;;-2.05;100.00
32933;BME280;19444;50.518;10.870;2023-03-01T08:05:09;97310.97;;;-1.94;100.00
32933;BME280;19444;50.518;10.870;2023-03-01T08:08:06;97312.41;;;-2.05;100.00
32933;BME280;19444;50.518;10.870;2023-03-01T08:11:06;97310.72;;;-1.86;100.00
32933;BME280;19444;50.518;10.870;2023-03-01T08:14:04;97318.03;;;-1.88;100.00
32933;BME280;19444;50.518;10.870;2023-03-01T08:17:01;97317.22;;;-1.89;100.00
32933;BME280;19444;50.518;10.870;2023-03-01T08:19:59;97313.13;;;-1.78;100.00
32933;BME280;19444;50.518;10.870;2023-03-01T08:22:58;97312.25;;;-1.65;100.00
32933;BME280;19444;50.518;10.870;2023-03-01T08:25:54;97296.44;;;-1.59;100.00
32933;BME280;19444;50.518;10.870;2023-03-01T08:28:51;97300.63;;;-1.45;100.00
32933;BME280;19444;50.518;10.870;2023-03-01T08:31:49;97304.22;;;-1.39;100.00
32933;BME280;19444;50.518;10.870;2023-03-01T08:34:49;97297.69;;;-1.30;100.00
32933;BME280;19444;50.518;10.870;2023-03-01T08:37:46;97299.28;;;-0.29;100.00
32933;BME280;19444;50.518;10.870;2023-03-01T08:40:43;97283.03;;;1.12;100.00
32933;BME280;19444;50.518;10.870;2023-03-01T08:43:40;97258.06;;;4.47;95.61
32933;BME280;19444;50.518;10.870;2023-03-01T08:46:40;97246.78;;;5.58;74.02
32933;BME280;19444;50.518;10.870;2023-03-01T08:49:37;97249.34;;;6.63;62.14
32933;BME280;19444;50.518;10.870;2023-03-01T08:52:34;97244.59;;;6.91;59.48
32933;BME280;19444;50.518;10.870;2023-03-01T08:55:31;97233.94;;;8.21;53.42
32933;BME280;19444;50.518;10.870;2023-03-01T08:58:29;97235.34;;;9.07;50.34
32933;BME280;19444;50.518;10.870;2023-03-01T09:01:26;97222.72;;;9.71;47.45
32933;BME280;19444;50.518;10.870;2023-03-01T09:04:23;97227.56;;;10.17;44.27
32933;BME280;19444;50.518;10.870;2023-03-01T09:07:20;97225.88;;;9.49;46.09
32933;BME280;19444;50.518;10.870;2023-03-01T09:10:17;97219.81;;;10.15;44.36
32933;BME280;19444;50.518;10.870;2023-03-01T09:13:14;97227.28;;;9.71;46.06
32933;BME280;19444;50.518;10.870;2023-03-01T09:16:13;97224.31;;;11.14;43.37
32933;BME280;19444;50.518;10.870;2023-03-01T09:19:11;97237.31;;;10.50;42.94
32933;BME280;19444;50.518;10.870;2023-03-01T09:22:08;97227.84;;;11.28;42.10
32933;BME280;19444;50.518;10.870;2023-03-01T09:25:05;97228.19;;;9.85;43.61
32933;BME280;19444;50.518;10.870;2023-03-01T09:28:02;97215.41;;;11.19;41.60
32933;BME280;19444;50.518;10.870;2023-03-01T09:31:01;97218.13;;;10.24;43.62
32933;BME280;19444;50.518;10.870;2023-03-01T09:33:58;97210.41;;;10.79;41.90
32933;BME280;19444;50.518;10.870;2023-03-01T09:36:57;97211.03;;;10.34;41.86
32933;BME280;19444;50.518;10.870;2023-03-01T09:39:55;97211.66;;;10.02;44.27
32933;BME280;19444;50.518;10.870;2023-03-01T09:43:27;97205.09;;;10.13;43.87
32933;BME280;19444;50.518;10.870;2023-03-01T09:46:28;97213.34;;;10.78;43.13
32933;BME280;19444;50.518;10.870;2023-03-01T09:49:33;97201.97;;;10.48;43.47
32933;BME280;19444;50.518;10.870;2023-03-01T09:52:42;97203.03;;;9.62;44.20
32933;BME280;19444;50.518;10.870;2023-03-01T09:59:14;97211.47;;;8.43;45.35
32933;BME280;19444;50.518;10.870;2023-03-01T10:02:27;97206.44;;;9.91;43.36
32933;BME280;19444;50.518;10.870;2023-03-01T10:05:52;97218.38;;;10.23;43.91
32933;BME280;19444;50.518;10.870;2023-03-01T10:09:19;97212.56;;;10.40;43.22
32933;BME280;19444;50.518;10.870;2023-03-01T10:12:24;97211.63;;;10.68;42.17
32933;BME280;19444;50.518;10.870;2023-03-01T10:15:43;97220.09;;;9.66;43.97
32933;BME280;19444;50.518;10.870;2023-03-01T10:18:41;97201.63;;;10.74;42.58
32933;BME280;19444;50.518;10.870;2023-03-01T10:21:45;97200.75;;;9.98;44.79
32933;BME280;19444;50.518;10.870;2023-03-01T10:24:42;97190.53;;;11.46;42.22
32933;BME280;19444;50.518;10.870;2023-03-01T10:28:05;97196.34;;;9.59;43.50
32933;BME280;19444;50.518;10.870;2023-03-01T10:31:13;97204.81;;;8.79;46.72
32933;BME280;19444;50.518;10.870;2023-03-01T10:34:30;97208.97;;;8.57;46.85
32933;BME280;19444;50.518;10.870;2023-03-01T10:37:27;97210.38;;;7.79;49.02
32933;BME280;19444;50.518;10.870;2023-03-01T10:40:25;97197.66;;;9.04;48.33
32933;BME280;19444;50.518;10.870;2023-03-01T10:43:23;97204.75;;;8.50;48.26
32933;BME280;19444;50.518;10.870;2023-03-01T10:46:27;97194.97;;;7.51;47.34
32933;BME280;19444;50.518;10.870;2023-03-01T10:49:25;97195.06;;;7.95;50.89
32933;BME280;19444;50.518;10.870;2023-03-01T10:52:31;97195.88;;;8.01;48.24
32933;BME280;19444;50.518;10.870;2023-03-01T10:55:37;97188.41;;;7.97;50.10
32933;BME280;19444;50.518;10.870;2023-03-01T10:58:38;97176.75;;;9.11;46.93
32933;BME280;19444;50.518;10.870;2023-03-01T11:01:35;97189.50;;;7.96;49.47
32933;BME280;19444;50.518;10.870;2023-03-01T11:04:32;97184.75;;;8.82;47.69
32933;BME280;19444;50.518;10.870;2023-03-01T11:07:29;97176.31;;;7.30;48.50
32933;BME280;19444;50.518;10.870;2023-03-01T11:10:32;97179.81;;;7.10;51.37
32933;BME280;19444;50.518;10.870;2023-03-01T11:13:29;97180.66;;;6.70;51.24
32933;BME280;19444;50.518;10.870;2023-03-01T11:16:38;97157.50;;;9.38;47.10
32933;BME280;19444;50.518;10.870;2023-03-01T11:19:36;97165.66;;;8.10;48.28
32933;BME280;19444;50.518;10.870;2023-03-01T11:22:34;97153.56;;;8.67;47.12
32933;BME280;19444;50.518;10.870;2023-03-01T11:25:37;97165.38;;;7.52;49.78
32933;BME280;19444;50.518;10.870;2023-03-01T11:28:37;97157.63;;;7.40;48.80
32933;BME280;19444;50.518;10.870;2023-03-01T11:31:36;97165.16;;;7.33;51.00
32933;BME280;19444;50.518;10.870;2023-03-01T11:34:49;97141.03;;;7.64;50.97
32933;BME280;19444;50.518;10.870;2023-03-01T11:38:28;97152.72;;;8.38;48.39
32933;BME280;19444;50.518;10.870;2023-03-01T11:41:33;97148.19;;;7.79;47.86
32933;BME280;19444;50.518;10.870;2023-03-01T11:44:35;97133.69;;;7.95;47.35
32933;BME280;19444;50.518;10.870;2023-03-01T11:47:53;97142.31;;;7.87;48.19
32933;BME280;19444;50.518;10.870;2023-03-01T11:50:54;97132.94;;;7.04;50.23
32933;BME280;19444;50.518;10.870;2023-03-01T11:54:12;97133.22;;;7.88;48.38
32933;BME280;19444;50.518;10.870;2023-03-01T11:57:43;97126.56;;;7.05;50.31
32933;BME280;19444;50.518;10.870;2023-03-01T12:01:19;97129.63;;;7.53;50.38
32933;BME280;19444;50.518;10.870;2023-03-01T12:08:06;97107.50;;;8.51;48.82
32933;BME280;19444;50.518;10.870;2023-03-01T12:22:51;97109.19;;;7.18;49.60
32933;BME280;19444;50.518;10.870;2023-03-01T12:39:33;97079.06;;;7.12;49.02
32933;BME280;19444;50.518;10.870;2023-03-01T12:46:21;97078.41;;;5.48;56.06
32933;BME280;19444;50.518;10.870;2023-03-01T12:49:34;97066.47;;;7.38;53.95
32933;BME280;19444;50.518;10.870;2023-03-01T12:52:52;97071.84;;;7.83;54.08
32933;BME280;19444;50.518;10.870;2023-03-01T12:55:52;97061.97;;;7.88;53.20
32933;BME280;19444;50.518;10.870;2023-03-01T12:59:19;97060.81;;;6.35;55.67
32933;BME280;19444;50.518;10.870;2023-03-01T13:02:58;97059.50;;;7.48;54.13
32933;BME280;19444;50.518;10.870;2023-03-01T13:09:24;97057.34;;;7.55;56.85
32933;BME280;19444;50.518;10.870;2023-03-01T13:15:48;97055.91;;;7.08;59.41
32933;BME280;19444;50.518;10.870;2023-03-01T13:18:47;97057.28;;;8.09;56.02
32933;BME280;19444;50.518;10.870;2023-03-01T13:21:47;97056.97;;;9.32;50.54
32933;BME280;19444;50.518;10.870;2023-03-01T13:24:45;97041.47;;;9.10;49.77
32933;BME280;19444;50.518;10.870;2023-03-01T13:27:42;97043.28;;;10.00;48.96
32933;BME280;19444;50.518;10.870;2023-03-01T13:30:42;97034.66;;;9.41;48.06
32933;BME280;19444;50.518;10.870;2023-03-01T13:33:48;97030.88;;;9.85;47.89
32933;BME280;19444;50.518;10.870;2023-03-01T13:36:48;97038.59;;;7.05;53.66
32933;BME280;19444;50.518;10.870;2023-03-01T13:39:45;97047.75;;;6.48;62.13
32933;BME280;19444;50.518;10.870;2023-03-01T13:42:47;97045.38;;;7.47;62.22
32933;BME280;19444;50.518;10.870;2023-03-01T13:45:59;97046.34;;;6.92;62.90
32933;BME280;19444;50.518;10.870;2023-03-01T13:48:57;97044.03;;;6.44;66.10
32933;BME280;19444;50.518;10.870;2023-03-01T13:51:54;97044.81;;;6.09;72.13
32933;BME280;19444;50.518;10.870;2023-03-01T13:54:51;97050.25;;;5.41;75.11
32933;BME280;19444;50.518;10.870;2023-03-01T13:57:59;97046.53;;;5.48;79.42
32933;BME280;19444;50.518;10.870;2023-03-01T14:01:06;97049.69;;;5.34;79.04
32933;BME280;19444;50.518;10.870;2023-03-01T14:07:23;97051.00;;;5.37;83.21
32933;BME280;19444;50.518;10.870;2023-03-01T14:10:21;97048.53;;;5.15;87.96
32933;BME280;19444;50.518;10.870;2023-03-01T14:13:59;97041.72;;;5.45;86.12
32933;BME280;19444;50.518;10.870;2023-03-01T14:20:27;97026.59;;;5.45;87.58
32933;BME280;19444;50.518;10.870;2023-03-01T14:23:25;97026.53;;;5.30;93.53
32933;BME280;19444;50.518;10.870;2023-03-01T14:26:24;97020.84;;;5.01;91.98
32933;BME280;19444;50.518;10.870;2023-03-01T14:29:36;97017.94;;;5.07;93.43
32933;BME280;19444;50.518;10.870;2023-03-01T14:32:33;97024.97;;;4.34;96.60
32933;BME280;19444;50.518;10.870;2023-03-01T14:35:34;97025.84;;;4.92;94.64
32933;BME280;19444;50.518;10.870;2023-03-01T14:38:35;97017.97;;;4.65;97.98
32933;BME280;19444;50.518;10.870;2023-03-01T14:41:35;97018.88;;;4.39;98.94
32933;BME280;19444;50.518;10.870;2023-03-01T14:44:32;97020.66;;;4.28;98.75
32933;BME280;19444;50.518;10.870;2023-03-01T14:47:35;97016.00;;;4.08;100.00
32933;BME280;19444;50.518;10.870;2023-03-01T14:50:36;97011.84;;;3.85;100.00
32933;BME280;19444;50.518;10.870;2023-03-01T14:53:37;97019.13;;;3.73;100.00
32933;BME280;19444;50.518;10.870;2023-03-01T14:56:47;97005.22;;;3.88;100.00
32933;BME280;19444;50.518;10.870;2023-03-01T14:59:45;96996.28;;;3.40;100.00
32933;BME280;19444;50.518;10.870;2023-03-01T15:02:42;97000.78;;;3.39;100.00
32933;BME280;19444;50.518;10.870;2023-03-01T15:05:41;97001.16;;;3.48;100.00
32933;BME280;19444;50.518;10.870;2023-03-01T15:08:44;96999.31;;;3.49;100.00
32933;BME280;19444;50.518;10.870;2023-03-01T15:11:42;96995.53;;;3.45;100.00
32933;BME280;19444;50.518;10.870;2023-03-01T15:14:43;96995.22;;;3.14;100.00
32933;BME280;19444;50.518;10.870;2023-03-01T15:17:56;96998.16;;;3.18;100.00
32933;BME280;19444;50.518;10.870;2023-03-01T15:20:55;96994.84;;;3.05;100.00
32933;BME280;19444;50.518;10.870;2023-03-01T15:24:06;97000.81;;;2.96;100.00
32933;BME280;19444;50.518;10.870;2023-03-01T15:27:22;96992.31;;;2.72;100.00
32933;BME280;19444;50.518;10.870;2023-03-01T15:30:33;96999.53;;;2.76;100.00
32933;BME280;19444;50.518;10.870;2023-03-01T15:33:37;97000.50;;;2.70;100.00
32933;BME280;19444;50.518;10.870;2023-03-01T15:39:54;96998.63;;;2.71;100.00
32933;BME280;19444;50.518;10.870;2023-03-01T15:42:51;97002.88;;;2.72;100.00
32933;BME280;19444;50.518;10.870;2023-03-01T15:45:56;97002.84;;;2.67;100.00
32933;BME280;19444;50.518;10.870;2023-03-01T15:48:58;97002.91;;;2.55;100.00
32933;BME280;19444;50.518;10.870;2023-03-01T15:51:55;97001.00;;;2.50;100.00
32933;BME280;19444;50.518;10.870;2023-03-01T15:54:52;97009.66;;;2.46;100.00
32933;BME280;19444;50.518;10.870;2023-03-01T15:57:50;97010.25;;;2.48;100.00
32933;BME280;19444;50.518;10.870;2023-03-01T16:00:55;97017.94;;;2.33;100.00
32933;BME280;19444;50.518;10.870;2023-03-01T16:03:58;97013.06;;;2.41;100.00
32933;BME280;19444;50.518;10.870;2023-03-01T16:06:55;97020.59;;;2.33;100.00
32933;BME280;19444;50.518;10.870;2023-03-01T16:09:51;97015.22;;;2.27;100.00
32933;BME280;19444;50.518;10.870;2023-03-01T16:12:52;97013.16;;;2.13;100.00
32933;BME280;19444;50.518;10.870;2023-03-01T16:15:49;97011.63;;;2.17;100.00
32933;BME280;19444;50.518;10.870;2023-03-01T16:18:46;97015.16;;;2.06;100.00
32933;BME280;19444;50.518;10.870;2023-03-01T16:21:43;97012.59;;;1.94;100.00
32933;BME280;19444;50.518;10.870;2023-03-01T16:24:43;97006.72;;;1.92;100.00
32933;BME280;19444;50.518;10.870;2023-03-01T16:27:43;97007.59;;;1.81;100.00
32933;BME280;19444;50.518;10.870;2023-03-01T16:30:46;97007.28;;;1.77;100.00
32933;BME280;19444;50.518;10.870;2023-03-01T16:33:45;97012.00;;;1.58;100.00
32933;BME280;19444;50.518;10.870;2023-03-01T16:36:46;97016.97;;;1.71;100.00
32933;BME280;19444;50.518;10.870;2023-03-01T16:39:45;97025.28;;;1.63;100.00